sensor_id;sensor_type;location;lat;lon;timestamp;pressure;altitude;pressure_sealevel;temperature;humidity
55934;BME280;41839;41.386;2.082;2022-10-26T00:02:03;99870.53;;;24.11;74.51
55934;BME280;41839;41.386;2.082;2022-10-26T00:04:28;99860.00;;;24.09;75.13
55934;BME280;41839;41.386;2.082;2022-10-26T00:06:54;99867.88;;;24.14;74.88
55934;BME280;41839;41.386;2.082;2022-10-26T00:09:19;99874.84;;;24.15;74.78
55934;BME280;41839;41.386;2.082;2022-10-26T00:11:44;99867.81;;;24.20;73.66
55934;BME280;41839;41.386;2.082;2022-10-26T00:14:10;99848.03;;;23.82;70.75
55934;BME280;41839;41.386;2.082;2022-10-26T00:16:35;99867.34;;;23.72;71.02
55934;BME280;41839;41.386;2.082;2022-10-26T00:19:01;99861.22;;;23.68;72.22
55934;BME280;41839;41.386;2.082;2022-10-26T00:21:26;99866.53;;;23.59;71.84
55934;BME280;41839;41.386;2.082;2022-10-26T00:23:52;99883.16;;;23.61;73.93
55934;BME280;41839;41.386;2.082;2022-10-26T00:26:17;99899.72;;;23.79;74.01
55934;BME280;41839;41.386;2.082;2022-10-26T00:28:43;99919.00;;;23.68;71.93
55934;BME280;41839;41.386;2.082;2022-10-26T00:31:12;99925.31;;;23.41;71.78
55934;BME280;41839;41.386;2.082;2022-10-26T00:33:38;99900.00;;;23.33;77.86
55934;BME280;41839;41.386;2.082;2022-10-26T00:36:04;99880.84;;;23.17;72.93
55934;BME280;41839;41.386;2.082;2022-10-26T00:40:41;99893.13;;;23.09;75.17
55934;BME280;41839;41.386;2.082;2022-10-26T00:43:11;99885.19;;;23.18;69.08
55934;BME280;41839;41.386;2.082;2022-10-26T00:47:39;99873.81;;;23.23;67.43
55934;BME280;41839;41.386;2.082;2022-10-26T00:50:20;99873.81;;;23.19;67.47
55934;BME280;41839;41.386;2.082;2022-10-26T00:52:48;99889.53;;;23.25;69.38
55934;BME280;41839;41.386;2.082;2022-10-26T00:55:16;99896.59;;;23.17;66.70
55934;BME280;41839;41.386;2.082;2022-10-26T00:57:45;99912.34;;;23.17;66.76
55934;BME280;41839;41.386;2.082;2022-10-26T01:00:13;99865.97;;;23.14;73.24
55934;BME280;41839;41.386;2.082;2022-10-26T01:02:38;99878.84;;;23.54;75.76
55934;BME280;41839;41.386;2.082;2022-10-26T01:05:05;99886.84;;;23.34;65.45
55934;BME280;41839;41.386;2.082;2022-10-26T01:07:31;99880.84;;;23.15;66.69
55934;BME280;41839;41.386;2.082;2022-10-26T01:11:51;99906.28;;;22.90;66.45
55934;BME280;41839;41.386;2.082;2022-10-26T01:14:17;99868.78;;;22.71;66.88
55934;BME280;41839;41.386;2.082;2022-10-26T01:18:12;99887.13;;;22.68;68.18
55934;BME280;41839;41.386;2.082;2022-10-26T01:24:30;99909.88;;;22.62;67.86
55934;BME280;41839;41.386;2.082;2022-10-26T01:27:10;99880.13;;;22.76;77.10
55934;BME280;41839;41.386;2.082;2022-10-26T01:32:25;99898.44;;;22.86;71.76
55934;BME280;41839;41.386;2.082;2022-10-26T01:35:08;99895.78;;;22.90;68.89
55934;BME280;41839;41.386;2.082;2022-10-26T01:37:38;99896.69;;;22.88;71.20
55934;BME280;41839;41.386;2.082;2022-10-26T01:40:14;99891.44;;;22.82;69.15
55934;BME280;41839;41.386;2.082;2022-10-26T01:42:46;99898.44;;;22.96;70.56
55934;BME280;41839;41.386;2.082;2022-10-26T01:45:13;99899.28;;;22.91;71.45
55934;BME280;41839;41.386;2.082;2022-10-26T01:47:40;99879.19;;;22.94;69.17
55934;BME280;41839;41.386;2.082;2022-10-26T01:50:09;99863.53;;;22.70;69.44
55934;BME280;41839;41.386;2.082;2022-10-26T01:52:35;99906.31;;;22.95;69.12
55934;BME280;41839;41.386;2.082;2022-10-26T02:09:37;99879.25;;;22.77;69.50
55934;BME280;41839;41.386;2.082;2022-10-26T02:12:13;99901.00;;;23.06;73.92
55934;BME280;41839;41.386;2.082;2022-10-26T02:14:47;99911.44;;;23.18;71.33
55934;BME280;41839;41.386;2.082;2022-10-26T02:20:03;99896.53;;;23.21;72.29
55934;BME280;41839;41.386;2.082;2022-10-26T02:22:34;99906.13;;;23.29;73.41
55934;BME280;41839;41.386;2.082;2022-10-26T02:25:06;99898.19;;;23.38;74.38
55934;BME280;41839;41.386;2.082;2022-10-26T02:27:35;99872.81;;;23.44;72.69
55934;BME280;41839;41.386;2.082;2022-10-26T02:30:03;99883.19;;;23.57;74.29
55934;BME280;41839;41.386;2.082;2022-10-26T02:32:31;99894.53;;;23.62;72.23
55934;BME280;41839;41.386;2.082;2022-10-26T02:34:59;99902.59;;;23.34;67.95
55934;BME280;41839;41.386;2.082;2022-10-26T02:37:27;99879.97;;;23.10;68.40
55934;BME280;41839;41.386;2.082;2022-10-26T02:40:21;99893.22;;;22.78;69.55
55934;BME280;41839;41.386;2.082;2022-10-26T02:42:50;99883.56;;;22.89;70.16
55934;BME280;41839;41.386;2.082;2022-10-26T02:45:20;99890.53;;;22.93;69.90
55934;BME280;41839;41.386;2.082;2022-10-26T02:47:48;99901.06;;;22.86;70.62
55934;BME280;41839;41.386;2.082;2022-10-26T02:50:13;99896.69;;;22.94;71.34
55934;BME280;41839;41.386;2.082;2022-10-26T02:52:47;99897.63;;;22.68;71.51
55934;BME280;41839;41.386;2.082;2022-10-26T02:57:39;99889.81;;;22.56;70.92
55934;BME280;41839;41.386;2.082;2022-10-26T03:00:11;99858.41;;;22.39;70.44
55934;BME280;41839;41.386;2.082;2022-10-26T03:02:37;99881.06;;;22.59;72.73
55934;BME280;41839;41.386;2.082;2022-10-26T03:05:31;99867.09;;;22.47;74.80
55934;BME280;41839;41.386;2.082;2022-10-26T03:07:58;99891.53;;;22.60;73.65
55934;BME280;41839;41.386;2.082;2022-10-26T03:10:24;99905.50;;;22.58;73.60
55934;BME280;41839;41.386;2.082;2022-10-26T03:12:50;99888.06;;;22.53;73.33
55934;BME280;41839;41.386;2.082;2022-10-26T03:15:16;99901.16;;;22.61;72.10
55934;BME280;41839;41.386;2.082;2022-10-26T03:17:42;99910.75;;;22.58;72.21
55934;BME280;41839;41.386;2.082;2022-10-26T03:20:08;99901.16;;;22.61;72.58
55934;BME280;41839;41.386;2.082;2022-10-26T03:22:34;99896.72;;;22.75;72.71
55934;BME280;41839;41.386;2.082;2022-10-26T03:24:59;99874.03;;;22.64;71.90
55934;BME280;41839;41.386;2.082;2022-10-26T03:28:52;99893.25;;;22.72;70.45
55934;BME280;41839;41.386;2.082;2022-10-26T03:31:17;99888.88;;;22.71;70.58
55934;BME280;41839;41.386;2.082;2022-10-26T03:33:43;99891.53;;;22.68;69.43
55934;BME280;41839;41.386;2.082;2022-10-26T03:36:09;99892.38;;;22.74;70.19
55934;BME280;41839;41.386;2.082;2022-10-26T03:38:34;99894.13;;;22.66;70.50
55934;BME280;41839;41.386;2.082;2022-10-26T03:41:29;99893.31;;;22.55;69.37
55934;BME280;41839;41.386;2.082;2022-10-26T03:43:54;99896.78;;;22.57;70.00
55934;BME280;41839;41.386;2.082;2022-10-26T03:46:20;99894.19;;;22.52;69.49
55934;BME280;41839;41.386;2.082;2022-10-26T03:48:45;99898.53;;;22.61;69.22
55934;BME280;41839;41.386;2.082;2022-10-26T03:51:11;99910.75;;;22.65;70.24
55934;BME280;41839;41.386;2.082;2022-10-26T03:55:29;99900.28;;;22.59;73.09
55934;BME280;41839;41.386;2.082;2022-10-26T03:57:55;99924.72;;;22.72;68.88
55934;BME280;41839;41.386;2.082;2022-10-26T04:00:20;99893.28;;;22.63;73.71
55934;BME280;41839;41.386;2.082;2022-10-26T04:03:44;99922.03;;;22.96;68.09
55934;BME280;41839;41.386;2.082;2022-10-26T04:10:28;99902.88;;;22.71;69.13
55934;BME280;41839;41.386;2.082;2022-10-26T04:12:54;99887.13;;;22.64;68.82
55934;BME280;41839;41.386;2.082;2022-10-26T04:15:20;99905.50;;;22.68;67.78
55934;BME280;41839;41.386;2.082;2022-10-26T04:17:46;99920.34;;;22.68;68.00
55934;BME280;41839;41.386;2.082;2022-10-26T04:20:12;99909.03;;;22.56;67.95
55934;BME280;41839;41.386;2.082;2022-10-26T04:22:37;99927.34;;;22.72;69.56
55934;BME280;41839;41.386;2.082;2022-10-26T04:26:51;99918.56;;;22.73;71.63
55934;BME280;41839;41.386;2.082;2022-10-26T04:29:17;99922.06;;;22.75;73.01
55934;BME280;41839;41.386;2.082;2022-10-26T04:31:42;99927.34;;;22.66;71.78
55934;BME280;41839;41.386;2.082;2022-10-26T04:34:08;99922.97;;;22.66;72.65
55934;BME280;41839;41.386;2.082;2022-10-26T04:36:33;99931.69;;;22.67;72.92
55934;BME280;41839;41.386;2.082;2022-10-26T04:38:59;99936.97;;;22.65;73.04
55934;BME280;41839;41.386;2.082;2022-10-26T04:41:25;99923.81;;;22.73;74.37
55934;BME280;41839;41.386;2.082;2022-10-26T04:43:50;99931.69;;;22.74;74.75
55934;BME280;41839;41.386;2.082;2022-10-26T04:46:16;99946.56;;;22.69;74.56
55934;BME280;41839;41.386;2.082;2022-10-26T04:48:41;99943.91;;;22.78;76.09
55934;BME280;41839;41.386;2.082;2022-10-26T04:51:06;99943.91;;;22.95;74.97
55934;BME280;41839;41.386;2.082;2022-10-26T04:53:32;99950.88;;;22.87;74.53
55934;BME280;41839;41.386;2.082;2022-10-26T04:57:16;99944.78;;;22.79;75.06
55934;BME280;41839;41.386;2.082;2022-10-26T04:59:42;99934.34;;;22.64;76.23
55934;BME280;41839;41.386;2.082;2022-10-26T05:02:07;99936.94;;;22.73;77.47
55934;BME280;41839;41.386;2.082;2022-10-26T05:04:33;99942.13;;;22.88;75.68
55934;BME280;41839;41.386;2.082;2022-10-26T05:06:58;99939.53;;;22.84;76.05
55934;BME280;41839;41.386;2.082;2022-10-26T05:09:23;99950.03;;;22.77;75.71
55934;BME280;41839;41.386;2.082;2022-10-26T05:11:49;99954.44;;;22.66;75.73
55934;BME280;41839;41.386;2.082;2022-10-26T05:14:14;99954.44;;;22.71;76.04
55934;BME280;41839;41.386;2.082;2022-10-26T05:16:53;99948.31;;;22.72;75.67
55934;BME280;41839;41.386;2.082;2022-10-26T05:19:20;99947.44;;;22.64;75.77
55934;BME280;41839;41.386;2.082;2022-10-26T05:23:50;99968.44;;;22.56;75.96
55934;BME280;41839;41.386;2.082;2022-10-26T05:26:18;99949.25;;;22.32;75.19
55934;BME280;41839;41.386;2.082;2022-10-26T05:28:43;99953.59;;;22.14;75.15
55934;BME280;41839;41.386;2.082;2022-10-26T05:31:09;99954.47;;;22.05;75.96
55934;BME280;41839;41.386;2.082;2022-10-26T05:33:34;99945.72;;;22.10;76.51
55934;BME280;41839;41.386;2.082;2022-10-26T05:36:00;99935.25;;;22.04;78.57
55934;BME280;41839;41.386;2.082;2022-10-26T05:38:25;99957.09;;;22.11;77.96
55934;BME280;41839;41.386;2.082;2022-10-26T05:40:52;99962.34;;;22.23;78.20
55934;BME280;41839;41.386;2.082;2022-10-26T05:43:19;99952.78;;;22.18;78.97
55934;BME280;41839;41.386;2.082;2022-10-26T05:45:45;99960.63;;;22.16;78.77
55934;BME280;41839;41.386;2.082;2022-10-26T05:48:11;99961.47;;;22.17;78.03
55934;BME280;41839;41.386;2.082;2022-10-26T05:50:37;99966.72;;;22.26;76.96
55934;BME280;41839;41.386;2.082;2022-10-26T05:53:02;99970.19;;;22.09;75.36
55934;BME280;41839;41.386;2.082;2022-10-26T05:55:28;99957.94;;;21.66;76.15
55934;BME280;41839;41.386;2.082;2022-10-26T05:57:54;99966.66;;;21.69;79.01
55934;BME280;41839;41.386;2.082;2022-10-26T06:00:22;99962.31;;;21.77;75.62
55934;BME280;41839;41.386;2.082;2022-10-26T06:06:00;99978.03;;;21.82;74.23
55934;BME280;41839;41.386;2.082;2022-10-26T06:08:27;99986.75;;;21.88;73.99
55934;BME280;41839;41.386;2.082;2022-10-26T06:10:54;99996.38;;;21.93;76.32
55934;BME280;41839;41.386;2.082;2022-10-26T06:13:20;99978.03;;;22.08;83.86
55934;BME280;41839;41.386;2.082;2022-10-26T06:15:52;99978.06;;;22.17;70.45
55934;BME280;41839;41.386;2.082;2022-10-26T06:24:01;99973.69;;;22.05;66.09
55934;BME280;41839;41.386;2.082;2022-10-26T06:26:38;99964.94;;;21.97;64.39
55934;BME280;41839;41.386;2.082;2022-10-26T06:31:47;99987.66;;;21.87;70.44
55934;BME280;41839;41.386;2.082;2022-10-26T06:34:24;99965.81;;;21.84;63.79
55934;BME280;41839;41.386;2.082;2022-10-26T06:36:51;99982.41;;;21.81;63.58
55934;BME280;41839;41.386;2.082;2022-10-26T06:39:18;99982.38;;;21.69;63.88
55934;BME280;41839;41.386;2.082;2022-10-26T06:41:45;99982.38;;;21.74;71.34
55934;BME280;41839;41.386;2.082;2022-10-26T06:44:20;99987.72;;;22.18;67.62
55934;BME280;41839;41.386;2.082;2022-10-26T06:49:30;100001.66;;;22.46;69.73
55934;BME280;41839;41.386;2.082;2022-10-26T06:52:08;99999.88;;;22.70;73.06
55934;BME280;41839;41.386;2.082;2022-10-26T06:57:10;99992.84;;;22.99;59.41
55934;BME280;41839;41.386;2.082;2022-10-26T06:59:57;99984.13;;;22.96;60.48
55934;BME280;41839;41.386;2.082;2022-10-26T07:02:26;99983.25;;;22.89;59.51
55934;BME280;41839;41.386;2.082;2022-10-26T07:04:52;99964.91;;;22.80;56.66
55934;BME280;41839;41.386;2.082;2022-10-26T07:07:19;99981.47;;;22.88;55.79
55934;BME280;41839;41.386;2.082;2022-10-26T07:09:46;99984.13;;;22.84;57.11
55934;BME280;41839;41.386;2.082;2022-10-26T07:12:11;100001.63;;;22.95;61.03
55934;BME280;41839;41.386;2.082;2022-10-26T07:14:37;100011.22;;;22.92;57.59
55934;BME280;41839;41.386;2.082;2022-10-26T07:17:04;100024.38;;;22.66;57.50
55934;BME280;41839;41.386;2.082;2022-10-26T07:19:29;100039.22;;;22.94;68.76
55934;BME280;41839;41.386;2.082;2022-10-26T07:21:56;100050.59;;;22.83;59.63
55934;BME280;41839;41.386;2.082;2022-10-26T07:24:24;100061.94;;;22.66;68.33
55934;BME280;41839;41.386;2.082;2022-10-26T07:27:19;100065.44;;;22.51;63.57
55934;BME280;41839;41.386;2.082;2022-10-26T07:29:45;100061.94;;;22.51;64.55
55934;BME280;41839;41.386;2.082;2022-10-26T07:32:10;100048.84;;;22.29;63.72
55934;BME280;41839;41.386;2.082;2022-10-26T07:34:36;100031.41;;;22.48;65.46
55934;BME280;41839;41.386;2.082;2022-10-26T07:37:01;100047.13;;;22.42;64.24
55934;BME280;41839;41.386;2.082;2022-10-26T07:39:27;100050.63;;;22.43;64.26
55934;BME280;41839;41.386;2.082;2022-10-26T07:41:53;100031.38;;;22.35;62.73
55934;BME280;41839;41.386;2.082;2022-10-26T07:44:18;100044.50;;;22.42;66.13
55934;BME280;41839;41.386;2.082;2022-10-26T07:46:44;100042.75;;;22.61;66.41
55934;BME280;41839;41.386;2.082;2022-10-26T07:49:10;100047.94;;;22.87;70.21
55934;BME280;41839;41.386;2.082;2022-10-26T07:51:35;100039.19;;;22.91;56.02
55934;BME280;41839;41.386;2.082;2022-10-26T07:54:30;100056.69;;;23.05;68.11
55934;BME280;41839;41.386;2.082;2022-10-26T07:56:56;100060.97;;;23.32;63.33
55934;BME280;41839;41.386;2.082;2022-10-26T07:59:22;100055.72;;;23.36;59.42
55934;BME280;41839;41.386;2.082;2022-10-26T08:01:48;100082.91;;;23.17;61.90
55934;BME280;41839;41.386;2.082;2022-10-26T08:04:14;100077.59;;;23.37;64.63
55934;BME280;41839;41.386;2.082;2022-10-26T08:06:39;100091.59;;;23.36;61.39
55934;BME280;41839;41.386;2.082;2022-10-26T08:09:05;100089.00;;;23.30;64.69
55934;BME280;41839;41.386;2.082;2022-10-26T08:11:30;100085.44;;;23.47;67.41
55934;BME280;41839;41.386;2.082;2022-10-26T08:13:55;100095.03;;;23.56;64.37
55934;BME280;41839;41.386;2.082;2022-10-26T08:16:21;100089.75;;;23.62;61.61
55934;BME280;41839;41.386;2.082;2022-10-26T08:18:48;100084.47;;;23.68;61.52
55934;BME280;41839;41.386;2.082;2022-10-26T08:21:14;100081.91;;;23.50;59.81
55934;BME280;41839;41.386;2.082;2022-10-26T08:23:40;100082.75;;;23.60;64.25
55934;BME280;41839;41.386;2.082;2022-10-26T08:26:07;100090.66;;;23.55;60.94
55934;BME280;41839;41.386;2.082;2022-10-26T08:28:35;100082.84;;;23.37;61.23
55934;BME280;41839;41.386;2.082;2022-10-26T08:31:01;100098.59;;;23.41;62.23
55934;BME280;41839;41.386;2.082;2022-10-26T08:33:26;100102.06;;;23.51;61.98
55934;BME280;41839;41.386;2.082;2022-10-26T08:35:56;100090.66;;;23.52;67.54
55934;BME280;41839;41.386;2.082;2022-10-26T08:38:22;100091.50;;;23.65;60.99
55934;BME280;41839;41.386;2.082;2022-10-26T08:40:47;100122.09;;;23.83;63.34
55934;BME280;41839;41.386;2.082;2022-10-26T08:43:26;100122.94;;;23.89;65.05
55934;BME280;41839;41.386;2.082;2022-10-26T08:46:31;100114.16;;;23.92;61.03
55934;BME280;41839;41.386;2.082;2022-10-26T08:49:22;100115.03;;;23.92;62.57
55934;BME280;41839;41.386;2.082;2022-10-26T08:51:52;100117.69;;;23.86;61.88
55934;BME280;41839;41.386;2.082;2022-10-26T08:54:37;100108.78;;;24.12;65.81
55934;BME280;41839;41.386;2.082;2022-10-26T08:58:31;100108.84;;;24.07;58.50
55934;BME280;41839;41.386;2.082;2022-10-26T09:01:00;100112.41;;;23.92;61.10
55934;BME280;41839;41.386;2.082;2022-10-26T09:03:27;100108.00;;;23.99;59.70
55934;BME280;41839;41.386;2.082;2022-10-26T09:06:10;100103.59;;;24.03;59.77
55934;BME280;41839;41.386;2.082;2022-10-26T09:11:27;100104.28;;;24.32;60.04
55934;BME280;41839;41.386;2.082;2022-10-26T09:14:18;100110.41;;;24.42;61.96
55934;BME280;41839;41.386;2.082;2022-10-26T09:24:52;100120.66;;;24.74;62.43
55934;BME280;41839;41.386;2.082;2022-10-26T09:27:20;100140.75;;;24.84;61.82
55934;BME280;41839;41.386;2.082;2022-10-26T09:29:48;100138.97;;;24.87;58.00
55934;BME280;41839;41.386;2.082;2022-10-26T09:32:20;100140.72;;;24.86;62.21
55934;BME280;41839;41.386;2.082;2022-10-26T09:34:50;100146.06;;;24.77;55.67
55934;BME280;41839;41.386;2.082;2022-10-26T09:37:23;100151.22;;;24.89;60.56
55934;BME280;41839;41.386;2.082;2022-10-26T09:40:12;100149.31;;;25.08;57.83
55934;BME280;41839;41.386;2.082;2022-10-26T09:42:57;100153.56;;;25.26;58.82
55934;BME280;41839;41.386;2.082;2022-10-26T09:45:33;100148.28;;;25.30;52.61
55934;BME280;41839;41.386;2.082;2022-10-26T09:48:06;100151.75;;;25.33;53.77
55934;BME280;41839;41.386;2.082;2022-10-26T09:50:38;100143.78;;;25.40;56.22
55934;BME280;41839;41.386;2.082;2022-10-26T09:53:04;100158.44;;;25.63;57.56
55934;BME280;41839;41.386;2.082;2022-10-26T09:55:30;100160.00;;;25.81;57.00
55934;BME280;41839;41.386;2.082;2022-10-26T09:58:46;100142.44;;;25.78;53.62
55934;BME280;41839;41.386;2.082;2022-10-26T10:06:46;100151.13;;;26.56;48.42
55934;BME280;41839;41.386;2.082;2022-10-26T10:09:22;100157.69;;;26.84;51.53
55934;BME280;41839;41.386;2.082;2022-10-26T10:13:16;100162.59;;;27.06;50.88
55934;BME280;41839;41.386;2.082;2022-10-26T10:15:55;100157.69;;;26.86;51.64
55934;BME280;41839;41.386;2.082;2022-10-26T10:18:21;100159.00;;;27.11;51.07
55934;BME280;41839;41.386;2.082;2022-10-26T10:20:55;100167.66;;;27.21;50.94
55934;BME280;41839;41.386;2.082;2022-10-26T10:23:28;100167.47;;;27.32;50.03
55934;BME280;41839;41.386;2.082;2022-10-26T10:26:07;100171.56;;;27.48;49.51
55934;BME280;41839;41.386;2.082;2022-10-26T10:28:35;100171.34;;;27.59;49.26
55934;BME280;41839;41.386;2.082;2022-10-26T10:31:17;100177.03;;;27.84;48.33
55934;BME280;41839;41.386;2.082;2022-10-26T10:33:43;100173.88;;;27.65;49.22
55934;BME280;41839;41.386;2.082;2022-10-26T10:36:14;100184.50;;;27.64;49.62
55934;BME280;41839;41.386;2.082;2022-10-26T10:38:43;100172.34;;;27.98;47.14
55934;BME280;41839;41.386;2.082;2022-10-26T10:46:50;100185.50;;;28.01;49.03
55934;BME280;41839;41.386;2.082;2022-10-26T10:49:25;100193.19;;;28.14;48.85
55934;BME280;41839;41.386;2.082;2022-10-26T10:51:51;100190.31;;;28.24;48.09
55934;BME280;41839;41.386;2.082;2022-10-26T11:00:30;100216.53;;;28.35;48.04
55934;BME280;41839;41.386;2.082;2022-10-26T11:10:01;100204.66;;;27.20;47.71
55934;BME280;41839;41.386;2.082;2022-10-26T11:12:33;100195.78;;;27.24;51.25
55934;BME280;41839;41.386;2.082;2022-10-26T11:15:09;100198.81;;;26.99;51.85
55934;BME280;41839;41.386;2.082;2022-10-26T11:21:56;100184.84;;;26.93;52.57
55934;BME280;41839;41.386;2.082;2022-10-26T11:27:16;100178.84;;;26.83;53.23
55934;BME280;41839;41.386;2.082;2022-10-26T11:32:40;100177.69;;;26.99;51.27
55934;BME280;41839;41.386;2.082;2022-10-26T11:35:18;100180.81;;;27.24;51.05
55934;BME280;41839;41.386;2.082;2022-10-26T11:44:17;100156.56;;;26.99;54.76
55934;BME280;41839;41.386;2.082;2022-10-26T11:47:06;100167.88;;;27.07;51.34
55934;BME280;41839;41.386;2.082;2022-10-26T11:57:11;100171.09;;;27.26;55.36
55934;BME280;41839;41.386;2.082;2022-10-26T11:59:44;100180.09;;;27.16;51.67
55934;BME280;41839;41.386;2.082;2022-10-26T12:02:20;100174.88;;;27.08;54.85
55934;BME280;41839;41.386;2.082;2022-10-26T12:04:55;100172.13;;;27.18;52.72
55934;BME280;41839;41.386;2.082;2022-10-26T12:07:25;100187.75;;;27.30;54.04
55934;BME280;41839;41.386;2.082;2022-10-26T12:09:53;100186.06;;;27.26;50.86
55934;BME280;41839;41.386;2.082;2022-10-26T12:14:03;100182.69;;;27.19;51.70
55934;BME280;41839;41.386;2.082;2022-10-26T12:19:13;100178.22;;;27.23;55.60
55934;BME280;41839;41.386;2.082;2022-10-26T12:21:42;100189.88;;;27.06;58.56
55934;BME280;41839;41.386;2.082;2022-10-26T12:24:29;100182.00;;;27.05;58.11
55934;BME280;41839;41.386;2.082;2022-10-26T12:27:04;100181.09;;;27.06;59.34
55934;BME280;41839;41.386;2.082;2022-10-26T12:29:45;100180.38;;;26.98;59.87
55934;BME280;41839;41.386;2.082;2022-10-26T12:33:59;100177.63;;;27.02;58.45
55934;BME280;41839;41.386;2.082;2022-10-26T12:39:33;100182.09;;;26.97;60.62
55934;BME280;41839;41.386;2.082;2022-10-26T12:47:48;100173.38;;;26.95;60.84
55934;BME280;41839;41.386;2.082;2022-10-26T13:03:11;100189.91;;;27.05;60.95
55934;BME280;41839;41.386;2.082;2022-10-26T13:08:28;100179.50;;;26.96;61.14
55934;BME280;41839;41.386;2.082;2022-10-26T13:11:14;100183.78;;;27.04;57.49
55934;BME280;41839;41.386;2.082;2022-10-26T13:13:41;100176.00;;;26.95;60.73
55934;BME280;41839;41.386;2.082;2022-10-26T13:16:11;100169.97;;;26.87;59.54
55934;BME280;41839;41.386;2.082;2022-10-26T13:18:45;100162.88;;;26.90;60.40
55934;BME280;41839;41.386;2.082;2022-10-26T13:21:16;100183.25;;;26.82;62.04
55934;BME280;41839;41.386;2.082;2022-10-26T13:24:00;100167.38;;;26.84;60.85
55934;BME280;41839;41.386;2.082;2022-10-26T13:26:27;100170.78;;;26.90;59.89
55934;BME280;41839;41.386;2.082;2022-10-26T13:35:57;100177.94;;;26.84;61.49
55934;BME280;41839;41.386;2.082;2022-10-26T13:38:28;100168.53;;;26.67;61.84
55934;BME280;41839;41.386;2.082;2022-10-26T13:41:03;100166.09;;;26.54;62.60
55934;BME280;41839;41.386;2.082;2022-10-26T13:43:30;100160.88;;;26.48;62.32
55934;BME280;41839;41.386;2.082;2022-10-26T13:45:58;100167.94;;;26.45;63.13
55934;BME280;41839;41.386;2.082;2022-10-26T13:48:38;100167.84;;;26.53;62.79
55934;BME280;41839;41.386;2.082;2022-10-26T13:51:20;100170.56;;;26.49;62.97
55934;BME280;41839;41.386;2.082;2022-10-26T13:59:07;100145.72;;;26.63;61.92
55934;BME280;41839;41.386;2.082;2022-10-26T14:01:34;100162.34;;;26.68;61.04
55934;BME280;41839;41.386;2.082;2022-10-26T14:04:13;100157.97;;;26.66;61.93
55934;BME280;41839;41.386;2.082;2022-10-26T14:10:40;100155.59;;;26.48;62.90
55934;BME280;41839;41.386;2.082;2022-10-26T14:13:08;100145.03;;;26.51;62.25
55934;BME280;41839;41.386;2.082;2022-10-26T14:15:35;100155.47;;;26.58;62.07
55934;BME280;41839;41.386;2.082;2022-10-26T14:18:02;100159.84;;;26.59;62.67
55934;BME280;41839;41.386;2.082;2022-10-26T14:20:28;100158.16;;;26.54;63.25
55934;BME280;41839;41.386;2.082;2022-10-26T14:22:54;100157.63;;;26.29;63.93
55934;BME280;41839;41.386;2.082;2022-10-26T14:25:27;100153.25;;;26.28;65.42
55934;BME280;41839;41.386;2.082;2022-10-26T14:27:56;100150.63;;;26.26;64.78
55934;BME280;41839;41.386;2.082;2022-10-26T14:30:26;100149.78;;;26.24;65.86
55934;BME280;41839;41.386;2.082;2022-10-26T14:32:52;100158.56;;;26.25;65.89
55934;BME280;41839;41.386;2.082;2022-10-26T14:35:24;100144.44;;;26.29;67.44
55934;BME280;41839;41.386;2.082;2022-10-26T14:37:56;100143.66;;;26.22;67.89
55934;BME280;41839;41.386;2.082;2022-10-26T14:40:27;100149.03;;;26.16;69.03
55934;BME280;41839;41.386;2.082;2022-10-26T14:42:58;100146.41;;;26.13;68.67
55934;BME280;41839;41.386;2.082;2022-10-26T14:47:53;100147.41;;;26.04;68.39
55934;BME280;41839;41.386;2.082;2022-10-26T14:50:20;100142.25;;;25.95;68.24
55934;BME280;41839;41.386;2.082;2022-10-26T14:52:52;100145.72;;;26.02;69.08
55934;BME280;41839;41.386;2.082;2022-10-26T14:55:19;100152.63;;;26.09;69.64
55934;BME280;41839;41.386;2.082;2022-10-26T14:57:47;100155.28;;;26.09;70.56
55934;BME280;41839;41.386;2.082;2022-10-26T15:00:22;100152.75;;;25.99;70.56
55934;BME280;41839;41.386;2.082;2022-10-26T15:02:50;100158.88;;;26.03;70.46
55934;BME280;41839;41.386;2.082;2022-10-26T15:05:24;100158.00;;;26.01;70.16
55934;BME280;41839;41.386;2.082;2022-10-26T15:09:36;100171.13;;;26.06;71.61
55934;BME280;41839;41.386;2.082;2022-10-26T15:12:26;100167.69;;;26.01;72.29
55934;BME280;41839;41.386;2.082;2022-10-26T15:14:52;100146.84;;;25.76;72.13
55934;BME280;41839;41.386;2.082;2022-10-26T15:17:24;100164.28;;;25.92;70.85
55934;BME280;41839;41.386;2.082;2022-10-26T15:19:52;100147.69;;;25.83;72.16
55934;BME280;41839;41.386;2.082;2022-10-26T15:22:25;100162.53;;;25.91;71.07
55934;BME280;41839;41.386;2.082;2022-10-26T15:24:54;100161.63;;;25.95;72.04
55934;BME280;41839;41.386;2.082;2022-10-26T15:27:27;100152.13;;;25.77;71.69
55934;BME280;41839;41.386;2.082;2022-10-26T15:30:18;100152.06;;;25.85;72.54
55934;BME280;41839;41.386;2.082;2022-10-26T15:32:44;100155.63;;;25.78;72.09
55934;BME280;41839;41.386;2.082;2022-10-26T15:37:36;100153.88;;;25.79;71.54
55934;BME280;41839;41.386;2.082;2022-10-26T15:40:01;100145.06;;;25.80;71.82
55934;BME280;41839;41.386;2.082;2022-10-26T15:42:52;100145.91;;;25.85;71.07
55934;BME280;41839;41.386;2.082;2022-10-26T15:45:29;100154.66;;;25.88;71.71
55934;BME280;41839;41.386;2.082;2022-10-26T15:47:56;100173.22;;;25.76;72.39
55934;BME280;41839;41.386;2.082;2022-10-26T15:50:25;100147.94;;;25.60;73.77
55934;BME280;41839;41.386;2.082;2022-10-26T15:52:55;100168.03;;;25.68;73.89
55934;BME280;41839;41.386;2.082;2022-10-26T15:55:22;100162.81;;;25.65;73.69
55934;BME280;41839;41.386;2.082;2022-10-26T15:58:35;100153.28;;;25.53;74.68
55934;BME280;41839;41.386;2.082;2022-10-26T16:01:01;100158.53;;;25.53;74.41
55934;BME280;41839;41.386;2.082;2022-10-26T16:03:27;100162.88;;;25.59;74.50
55934;BME280;41839;41.386;2.082;2022-10-26T16:05:57;100157.66;;;25.56;75.24
55934;BME280;41839;41.386;2.082;2022-10-26T16:08:28;100141.19;;;25.34;74.69
55934;BME280;41839;41.386;2.082;2022-10-26T16:10:54;100139.50;;;25.27;76.11